createdAt,value
2018-04-01T00:00:04.033Z,1003.16
2018-04-01T00:01:30.963Z,1003.16
2018-04-01T00:02:58.038Z,1003.18
2018-04-01T00:04:25.280Z,1003.17
2018-04-01T00:05:52.403Z,1003.15
2018-04-01T00:07:19.707Z,1003.14
2018-04-01T00:08:46.770Z,1003.13
2018-04-01T00:10:13.638Z,1003.15
2018-04-01T00:11:40.450Z,1003.13
2018-04-01T00:13:07.289Z,1003.15
2018-04-01T00:14:34.348Z,1003.16
2018-04-01T00:16:01.209Z,1003.17
2018-04-01T00:17:28.400Z,1003.15
2018-04-01T00:18:55.533Z,1003.16
2018-04-01T00:20:22.453Z,1003.16
2018-04-01T00:21:49.203Z,1003.16
2018-04-01T00:23:16.077Z,1003.16
2018-04-01T00:24:43.296Z,1003.18
2018-04-01T00:26:10.181Z,1003.22
2018-04-01T00:27:37.106Z,1003.21
2018-04-01T00:29:04.102Z,1003.23
2018-04-01T00:30:31.218Z,1003.21
2018-04-01T00:31:58.310Z,1003.21
2018-04-01T00:33:25.221Z,1003.22
2018-04-01T00:34:52.062Z,1003.22
2018-04-01T00:36:19.238Z,1003.22
2018-04-01T00:37:46.361Z,1003.19
2018-04-01T00:39:13.462Z,1003.21
2018-04-01T00:40:40.298Z,1003.20
2018-04-01T00:42:07.059Z,1003.20
2018-04-01T00:43:34.401Z,1003.20
2018-04-01T00:45:00.964Z,1003.23
2018-04-01T00:46:27.783Z,1003.21
2018-04-01T00:47:54.739Z,1003.21
2018-04-01T00:49:21.975Z,1003.21
2018-04-01T00:50:48.877Z,1003.22
2018-04-01T00:52:15.996Z,1003.21
2018-04-01T00:53:43.253Z,1003.22
2018-04-01T00:55:10.151Z,1003.20
2018-04-01T00:56:37.333Z,1003.20
2018-04-01T00:58:04.302Z,1003.20
2018-04-01T00:59:31.330Z,1003.23
2018-04-01T01:00:58.184Z,1003.23
2018-04-01T01:02:25.573Z,1003.23
2018-04-01T01:03:52.609Z,1003.23
2018-04-01T01:05:19.709Z,1003.20
2018-04-01T01:06:46.515Z,1003.23
2018-04-01T01:08:13.705Z,1003.21
2018-04-01T01:09:40.816Z,1003.22
2018-04-01T01:11:07.870Z,1003.21
2018-04-01T01:12:34.938Z,1003.23
2018-04-01T01:14:02.017Z,1003.21
2018-04-01T01:15:29.084Z,1003.22
2018-04-01T01:16:55.997Z,1003.21
2018-04-01T01:18:23.387Z,1003.21
2018-04-01T01:19:50.220Z,1003.17
2018-04-01T01:21:17.034Z,1003.21
2018-04-01T01:22:44.160Z,1003.21
2018-04-01T01:24:10.978Z,1003.22
2018-04-01T01:25:38.100Z,1003.22
2018-04-01T01:27:05.091Z,1003.23
2018-04-01T01:28:32.284Z,1003.23
2018-04-01T01:29:59.461Z,1003.21
2018-04-01T01:31:26.609Z,1003.23
2018-04-01T01:32:53.870Z,1003.22
2018-04-01T01:34:20.569Z,1003.21
2018-04-01T01:35:47.662Z,1003.20
2018-04-01T01:37:14.799Z,1003.19
2018-04-01T01:38:42.147Z,1003.17
2018-04-01T01:40:09.032Z,1003.15
2018-04-01T01:41:35.916Z,1003.12
2018-04-01T01:43:03.016Z,1003.12
2018-04-01T01:44:30.103Z,1003.07
2018-04-01T01:45:57.303Z,1003.09
2018-04-01T01:47:24.400Z,1003.06
2018-04-01T01:48:51.593Z,1003.05
2018-04-01T01:50:18.610Z,1003.06
2018-04-01T01:51:45.749Z,1003.04
2018-04-01T01:53:12.965Z,1003.08
2018-04-01T01:54:40.015Z,1003.07
2018-04-01T01:56:06.995Z,1003.07
2018-04-01T01:57:34.017Z,1003.05
2018-04-01T01:59:01.303Z,1003.07
2018-04-01T02:00:28.500Z,1003.07
2018-04-01T02:01:55.860Z,1003.06
2018-04-01T02:03:22.961Z,1003.07
2018-04-01T02:04:49.910Z,1003.08
2018-04-01T02:06:16.992Z,1003.12
2018-04-01T02:07:43.703Z,1003.05
2018-04-01T02:09:10.942Z,1003.06
2018-04-01T02:10:38.043Z,1003.06
2018-04-01T02:12:05.251Z,1003.08
2018-04-01T02:13:32.303Z,1003.10
2018-04-01T02:14:59.482Z,1003.09
2018-04-01T02:16:26.663Z,1003.08
2018-04-01T02:17:53.638Z,1003.07
2018-04-01T02:19:20.900Z,1003.07
2018-04-01T02:20:48.005Z,1003.09
2018-04-01T02:22:14.834Z,1003.06
2018-04-01T02:23:42.060Z,1003.11
2018-04-01T02:25:08.807Z,1003.07
2018-04-01T02:26:35.684Z,1003.09
2018-04-01T02:28:02.845Z,1003.11
2018-04-01T02:29:29.911Z,1003.11
2018-04-01T02:30:56.993Z,1003.11
2018-04-01T02:32:24.110Z,1003.11
2018-04-01T02:33:51.353Z,1003.14
2018-04-01T02:35:18.445Z,1003.12
2018-04-01T02:36:45.358Z,1003.13
2018-04-01T02:38:12.565Z,1003.15
2018-04-01T02:39:39.808Z,1003.12
2018-04-01T02:41:06.652Z,1003.13
2018-04-01T02:42:33.891Z,1003.15
2018-04-01T02:44:00.839Z,1003.13
2018-04-01T02:45:28.108Z,1003.13
2018-04-01T02:46:55.150Z,1003.14
2018-04-01T02:48:22.295Z,1003.18
2018-04-01T02:49:49.255Z,1003.17
2018-04-01T02:51:16.281Z,1003.16
2018-04-01T02:52:43.318Z,1003.18
2018-04-01T02:54:10.289Z,1003.16
2018-04-01T02:55:37.265Z,1003.16
2018-04-01T02:57:04.482Z,1003.19
2018-04-01T02:58:31.583Z,1003.17
2018-04-01T02:59:58.747Z,1003.20
2018-04-01T03:01:25.722Z,1003.19
2018-04-01T03:02:52.987Z,1003.17
2018-04-01T03:04:20.053Z,1003.16
2018-04-01T03:05:47.281Z,1003.14
2018-04-01T03:07:14.378Z,1003.14
2018-04-01T03:08:41.470Z,1003.17
2018-04-01T03:10:08.433Z,1003.15
2018-04-01T03:11:35.424Z,1003.16
2018-04-01T03:13:02.427Z,1003.12
2018-04-01T03:14:29.459Z,1003.13
2018-04-01T03:15:56.464Z,1003.13
2018-04-01T03:17:23.675Z,1003.13
2018-04-01T03:18:50.829Z,1003.14
2018-04-01T03:20:17.775Z,1003.12
2018-04-01T03:21:44.830Z,1003.13
2018-04-01T03:23:11.935Z,1003.14
2018-04-01T03:24:39.003Z,1003.15
2018-04-01T03:26:05.984Z,1003.18
2018-04-01T03:27:32.988Z,1003.17
2018-04-01T03:29:00.102Z,1003.15
2018-04-01T03:30:27.129Z,1003.15
2018-04-01T03:31:54.444Z,1003.15
2018-04-01T03:33:21.399Z,1003.16
2018-04-01T03:34:48.632Z,1003.14
2018-04-01T03:36:15.790Z,1003.13
2018-04-01T03:37:42.737Z,1003.15
2018-04-01T03:39:09.728Z,1003.15
2018-04-01T03:40:36.973Z,1003.16
2018-04-01T03:42:03.829Z,1003.18
2018-04-01T03:43:30.675Z,1003.18
2018-04-01T03:44:58.134Z,1003.18
2018-04-01T03:46:25.219Z,1003.16
2018-04-01T03:47:52.400Z,1003.17
2018-04-01T03:49:19.122Z,1003.12
2018-04-01T03:50:46.298Z,1003.14
2018-04-01T03:52:13.259Z,1003.14
2018-04-01T03:53:40.442Z,1003.14
2018-04-01T03:55:07.314Z,1003.15
2018-04-01T03:56:34.386Z,1003.18
2018-04-01T03:58:01.615Z,1003.17
2018-04-01T03:59:28.799Z,1003.18
2018-04-01T04:00:55.754Z,1003.22
2018-04-01T04:02:22.971Z,1003.22
2018-04-01T04:03:49.881Z,1003.21
2018-04-01T04:05:17.033Z,1003.24
2018-04-01T04:06:44.022Z,1003.23
2018-04-01T04:08:11.384Z,1003.26
2018-04-01T04:09:38.373Z,1003.23
2018-04-01T04:11:05.017Z,1003.27
2018-04-01T04:12:32.190Z,1003.25
2018-04-01T04:13:59.423Z,1003.29
2018-04-01T04:15:26.633Z,1003.28
2018-04-01T04:16:53.714Z,1003.31
2018-04-01T04:18:20.720Z,1003.35
2018-04-01T04:19:47.740Z,1003.39
2018-04-01T04:21:14.930Z,1003.39
2018-04-01T04:22:42.063Z,1003.40
2018-04-01T04:24:09.199Z,1003.46
2018-04-01T04:25:36.164Z,1003.45
2018-04-01T04:27:03.336Z,1003.44
2018-04-01T04:28:30.476Z,1003.47
2018-04-01T04:29:57.801Z,1003.45
2018-04-01T04:31:25.049Z,1003.46
2018-04-01T04:32:52.313Z,1003.49
2018-04-01T04:34:19.443Z,1003.44
2018-04-01T04:35:46.583Z,1003.48
2018-04-01T04:37:13.688Z,1003.48
2018-04-01T04:38:40.900Z,1003.50
2018-04-01T04:40:07.928Z,1003.50
2018-04-01T04:41:34.727Z,1003.51
2018-04-01T04:43:01.820Z,1003.52
2018-04-01T04:44:29.087Z,1003.52
2018-04-01T04:45:56.265Z,1003.54
2018-04-01T04:47:23.439Z,1003.54
2018-04-01T04:48:50.608Z,1003.52
2018-04-01T04:50:17.565Z,1003.52
2018-04-01T04:51:44.611Z,1003.53
2018-04-01T04:53:11.592Z,1003.57
2018-04-01T04:54:38.774Z,1003.62
2018-04-01T04:56:05.692Z,1003.64
2018-04-01T04:57:32.791Z,1003.67
2018-04-01T04:59:00.038Z,1003.69
2018-04-01T05:00:27.093Z,1003.72
2018-04-01T05:01:54.349Z,1003.75
2018-04-01T05:03:21.307Z,1003.72
2018-04-01T05:04:48.498Z,1003.76
2018-04-01T05:06:15.496Z,1003.74
2018-04-01T05:07:42.623Z,1003.77
2018-04-01T05:09:09.763Z,1003.78
2018-04-01T05:10:36.899Z,1003.82
2018-04-01T05:12:03.971Z,1003.82
2018-04-01T05:13:31.055Z,1003.83
2018-04-01T05:14:58.208Z,1003.86
2018-04-01T05:16:25.260Z,1003.84
2018-04-01T05:17:52.460Z,1003.85
2018-04-01T05:19:19.641Z,1003.89
2018-04-01T05:20:46.958Z,1003.91
2018-04-01T05:22:14.178Z,1003.88
2018-04-01T05:23:41.175Z,1003.96
2018-04-01T05:25:08.301Z,1003.92
2018-04-01T05:26:35.180Z,1003.94
2018-04-01T05:28:02.486Z,1003.96
2018-04-01T05:29:29.541Z,1003.97
2018-04-01T05:30:56.593Z,1003.98
2018-04-01T05:32:23.891Z,1003.98
2018-04-01T05:33:50.832Z,1003.99
2018-04-01T05:35:18.066Z,1004.00
2018-04-01T05:36:45.263Z,1004.04
2018-04-01T05:38:12.260Z,1004.08
2018-04-01T05:39:39.530Z,1004.09
2018-04-01T05:41:06.311Z,1004.12
2018-04-01T05:42:33.604Z,1004.16
2018-04-01T05:44:00.653Z,1004.18
2018-04-01T05:45:30.705Z,1004.17
2018-04-01T05:46:54.743Z,1004.18
2018-04-01T05:48:21.859Z,1004.18
2018-04-01T05:49:48.754Z,1004.24
2018-04-01T05:51:15.800Z,1004.25
2018-04-01T05:52:43.092Z,1004.32
2018-04-01T05:54:10.022Z,1004.29
2018-04-01T05:55:36.699Z,1004.31
2018-04-01T05:57:03.729Z,1004.32
2018-04-01T05:58:30.714Z,1004.26
2018-04-01T05:59:57.926Z,1004.27
2018-04-01T06:01:25.114Z,1004.29
2018-04-01T06:02:52.492Z,1004.33
2018-04-01T06:04:19.350Z,1004.30
2018-04-01T06:05:46.453Z,1004.33
2018-04-01T06:07:13.312Z,1004.36
2018-04-01T06:08:40.508Z,1004.35
2018-04-01T06:10:07.558Z,1004.33
2018-04-01T06:11:34.792Z,1004.39
2018-04-01T06:13:01.955Z,1004.40
2018-04-01T06:14:28.848Z,1004.41
2018-04-01T06:15:55.873Z,1004.44
2018-04-01T06:17:22.912Z,1004.43
2018-04-01T06:18:50.025Z,1004.50
2018-04-01T06:20:16.837Z,1004.50
2018-04-01T06:21:43.863Z,1004.54
2018-04-01T06:23:10.908Z,1004.53
2018-04-01T06:24:38.060Z,1004.55
2018-04-01T06:26:05.055Z,1004.56
2018-04-01T06:27:32.162Z,1004.58
2018-04-01T06:28:59.338Z,1004.58
2018-04-01T06:30:26.562Z,1004.54
2018-04-01T06:31:53.849Z,1004.60
2018-04-01T06:33:20.904Z,1004.61
2018-04-01T06:34:47.997Z,1004.66
2018-04-01T06:36:15.035Z,1004.71
2018-04-01T06:37:42.204Z,1004.68
2018-04-01T06:39:09.131Z,1004.68
2018-04-01T06:40:36.064Z,1004.71
2018-04-01T06:42:03.085Z,1004.71
2018-04-01T06:43:30.162Z,1004.72
2018-04-01T06:44:57.346Z,1004.74
2018-04-01T06:46:24.247Z,1004.75
2018-04-01T06:47:51.062Z,1004.77
2018-04-01T06:49:18.079Z,1004.83
2018-04-01T06:50:45.131Z,1004.83
2018-04-01T06:52:12.461Z,1004.86
2018-04-01T06:53:39.542Z,1004.89
2018-04-01T06:55:06.278Z,1004.86
2018-04-01T06:56:33.556Z,1004.86
2018-04-01T06:58:00.905Z,1004.89
2018-04-01T06:59:27.698Z,1004.88
2018-04-01T07:00:55.024Z,1004.90
2018-04-01T07:02:22.010Z,1004.91
2018-04-01T07:03:49.127Z,1004.93
2018-04-01T07:05:16.517Z,1004.92
2018-04-01T07:06:43.294Z,1004.93
2018-04-01T07:08:10.156Z,1004.93
2018-04-01T07:09:37.033Z,1004.97
2018-04-01T07:11:04.234Z,1004.97
2018-04-01T07:12:31.398Z,1005.00
2018-04-01T07:13:58.469Z,1005.03
2018-04-01T07:15:25.698Z,1005.02
2018-04-01T07:16:52.639Z,1005.07
2018-04-01T07:18:19.854Z,1005.09
2018-04-01T07:19:46.811Z,1005.14
2018-04-01T07:21:13.951Z,1005.16
2018-04-01T07:22:41.018Z,1005.19
2018-04-01T07:24:08.043Z,1005.15
2018-04-01T07:25:35.018Z,1005.16
2018-04-01T07:27:02.103Z,1005.19
2018-04-01T07:28:28.850Z,1005.21
2018-04-01T07:29:56.107Z,1005.24
2018-04-01T07:31:23.133Z,1005.25
2018-04-01T07:32:50.343Z,1005.28
2018-04-01T07:34:17.448Z,1005.29
2018-04-01T07:35:44.621Z,1005.27
2018-04-01T07:37:11.450Z,1005.31
2018-04-01T07:38:38.127Z,1005.32
2018-04-01T07:40:05.425Z,1005.31
2018-04-01T07:41:32.699Z,1005.32
2018-04-01T07:42:59.722Z,1005.34
2018-04-01T07:44:26.659Z,1005.36
2018-04-01T07:45:53.743Z,1005.35
2018-04-01T07:47:20.925Z,1005.38
2018-04-01T07:48:48.199Z,1005.40
2018-04-01T07:50:15.285Z,1005.35
2018-04-01T07:51:42.421Z,1005.35
2018-04-01T07:53:09.486Z,1005.35
2018-04-01T07:54:36.809Z,1005.38
2018-04-01T07:56:03.758Z,1005.39
2018-04-01T07:57:30.735Z,1005.42
2018-04-01T07:58:57.628Z,1005.44
2018-04-01T08:00:24.826Z,1005.46
2018-04-01T08:01:52.191Z,1005.47
2018-04-01T08:03:19.316Z,1005.45
2018-04-01T08:04:46.562Z,1005.48
2018-04-01T08:06:13.590Z,1005.46
2018-04-01T08:07:40.387Z,1005.50
2018-04-01T08:09:07.331Z,1005.47
2018-04-01T08:10:34.422Z,1005.48
2018-04-01T08:12:01.323Z,1005.49
2018-04-01T08:13:28.463Z,1005.49
2018-04-01T08:14:55.630Z,1005.51
2018-04-01T08:16:22.832Z,1005.54
2018-04-01T08:17:50.101Z,1005.58
2018-04-01T08:19:17.380Z,1005.57
2018-04-01T08:20:44.523Z,1005.61
2018-04-01T08:22:11.512Z,1005.64
2018-04-01T08:23:38.578Z,1005.63
2018-04-01T08:25:05.457Z,1005.63
2018-04-01T08:26:32.464Z,1005.60
2018-04-01T08:27:59.501Z,1005.59
2018-04-01T08:29:26.581Z,1005.59
2018-04-01T08:30:53.573Z,1005.60
2018-04-01T08:32:20.261Z,1005.61
2018-04-01T08:33:47.544Z,1005.67
2018-04-01T08:35:14.748Z,1005.70
2018-04-01T08:36:41.992Z,1005.70
2018-04-01T08:38:09.072Z,1005.73
2018-04-01T08:39:36.127Z,1005.75
2018-04-01T08:41:04.337Z,1005.74
2018-04-01T08:42:30.363Z,1005.77
2018-04-01T08:43:57.392Z,1005.76
2018-04-01T08:45:24.351Z,1005.76
2018-04-01T08:46:51.340Z,1005.77
2018-04-01T08:48:18.336Z,1005.76
2018-04-01T08:49:45.159Z,1005.79
2018-04-01T08:51:12.162Z,1005.80
2018-04-01T08:52:39.305Z,1005.79
2018-04-01T08:54:06.441Z,1005.80
2018-04-01T08:55:33.768Z,1005.84
2018-04-01T08:57:00.898Z,1005.85
2018-04-01T08:58:27.712Z,1005.85
2018-04-01T08:59:54.930Z,1005.88
2018-04-01T09:01:22.297Z,1005.90
2018-04-01T09:02:49.331Z,1005.90
2018-04-01T09:04:16.406Z,1005.93
2018-04-01T09:05:43.499Z,1005.94
2018-04-01T09:07:10.733Z,1005.97
2018-04-01T09:08:37.940Z,1005.98
2018-04-01T09:10:04.998Z,1005.99
2018-04-01T09:11:32.149Z,1005.99
2018-04-01T09:12:59.195Z,1006.00
2018-04-01T09:14:26.230Z,1005.99
2018-04-01T09:15:53.564Z,1005.97
2018-04-01T09:17:20.835Z,1006.03
2018-04-01T09:18:47.759Z,1006.07
2018-04-01T09:20:14.768Z,1006.09
2018-04-01T09:21:41.969Z,1006.08
2018-04-01T09:23:08.973Z,1006.09
2018-04-01T09:24:35.931Z,1006.11
2018-04-01T09:26:03.134Z,1006.10
2018-04-01T09:27:30.306Z,1006.15
2018-04-01T09:28:57.386Z,1006.16
2018-04-01T09:30:24.571Z,1006.19
2018-04-01T09:31:51.499Z,1006.19
2018-04-01T09:33:18.635Z,1006.20
2018-04-01T09:34:45.918Z,1006.22
2018-04-01T09:36:13.029Z,1006.24
2018-04-01T09:37:40.245Z,1006.26
2018-04-01T09:39:07.361Z,1006.27
2018-04-01T09:40:34.620Z,1006.29
2018-04-01T09:42:01.749Z,1006.31
2018-04-01T09:43:28.901Z,1006.32
2018-04-01T09:44:55.993Z,1006.33
2018-04-01T09:46:23.069Z,1006.34
2018-04-01T09:47:50.267Z,1006.31
2018-04-01T09:49:17.393Z,1006.33
2018-04-01T09:50:44.493Z,1006.34
2018-04-01T09:52:11.642Z,1006.37
2018-04-01T09:53:38.769Z,1006.38
2018-04-01T09:55:05.660Z,1006.41
2018-04-01T09:56:32.809Z,1006.44
2018-04-01T09:58:00.091Z,1006.44
2018-04-01T09:59:27.087Z,1006.49
2018-04-01T10:00:54.160Z,1006.52
2018-04-01T10:02:21.203Z,1006.51
2018-04-01T10:03:48.080Z,1006.53
2018-04-01T10:05:15.004Z,1006.55
2018-04-01T10:06:42.052Z,1006.54
2018-04-01T10:08:09.341Z,1006.49
2018-04-01T10:09:36.374Z,1006.49
2018-04-01T10:11:03.494Z,1006.54
2018-04-01T10:12:30.553Z,1006.53
2018-04-01T10:13:57.728Z,1006.54
2018-04-01T10:15:24.890Z,1006.55
2018-04-01T10:16:52.120Z,1006.54
2018-04-01T10:18:19.315Z,1006.58
2018-04-01T10:19:46.396Z,1006.60
2018-04-01T10:21:13.545Z,1006.59
2018-04-01T10:22:40.875Z,1006.59
2018-04-01T10:24:07.930Z,1006.58
2018-04-01T10:25:35.145Z,1006.58
2018-04-01T10:27:02.511Z,1006.57
2018-04-01T10:28:29.719Z,1006.56
2018-04-01T10:29:57.010Z,1006.52
2018-04-01T10:31:24.175Z,1006.53
2018-04-01T10:32:51.468Z,1006.52
2018-04-01T10:34:18.688Z,1006.56
2018-04-01T10:35:45.769Z,1006.58
2018-04-01T10:37:13.007Z,1006.60
2018-04-01T10:38:40.074Z,1006.59
2018-04-01T10:40:07.221Z,1006.60
2018-04-01T10:41:34.471Z,1006.60
2018-04-01T10:43:01.855Z,1006.60
2018-04-01T10:44:28.909Z,1006.63
2018-04-01T10:45:56.000Z,1006.65
2018-04-01T10:47:23.239Z,1006.66
2018-04-01T10:48:50.247Z,1006.67
2018-04-01T10:50:17.386Z,1006.69
2018-04-01T10:51:44.553Z,1006.68
2018-04-01T10:53:11.562Z,1006.71
2018-04-01T10:54:38.700Z,1006.71
2018-04-01T10:56:05.695Z,1006.76
2018-04-01T10:57:32.885Z,1006.77
2018-04-01T10:58:59.985Z,1006.76
2018-04-01T11:00:27.259Z,1006.78
2018-04-01T11:01:54.615Z,1006.80
2018-04-01T11:03:21.932Z,1006.82
2018-04-01T11:04:48.900Z,1006.82
2018-04-01T11:06:16.102Z,1006.88
2018-04-01T11:07:43.412Z,1006.85
2018-04-01T11:09:10.434Z,1006.86
2018-04-01T11:10:37.426Z,1006.86
2018-04-01T11:12:04.615Z,1006.89
2018-04-01T11:13:31.777Z,1006.90
2018-04-01T11:14:59.209Z,1006.91
2018-04-01T11:16:26.548Z,1006.91
2018-04-01T11:17:53.796Z,1006.94
2018-04-01T11:19:20.746Z,1006.95
2018-04-01T11:20:48.007Z,1006.96
2018-04-01T11:22:15.305Z,1006.97
2018-04-01T11:23:42.468Z,1006.98
2018-04-01T11:25:09.641Z,1007.01
2018-04-01T11:26:36.697Z,1007.00
2018-04-01T11:28:03.848Z,1007.00
2018-04-01T11:29:31.132Z,1006.99
2018-04-01T11:30:58.448Z,1007.00
2018-04-01T11:32:25.826Z,1007.00
2018-04-01T11:33:53.016Z,1007.00
2018-04-01T11:35:20.170Z,1007.04
2018-04-01T11:36:47.256Z,1007.03
2018-04-01T11:38:14.445Z,1007.03
2018-04-01T11:39:41.730Z,1007.07
2018-04-01T11:41:08.840Z,1007.08
2018-04-01T11:42:35.843Z,1007.08
2018-04-01T11:44:03.093Z,1007.10
2018-04-01T11:45:30.240Z,1007.09
2018-04-01T11:46:57.450Z,1007.10
2018-04-01T11:48:24.392Z,1007.06
2018-04-01T11:49:51.597Z,1007.13
2018-04-01T11:51:18.916Z,1007.15
2018-04-01T11:52:46.123Z,1007.15
2018-04-01T11:54:13.274Z,1007.20
2018-04-01T11:55:40.376Z,1007.21
2018-04-01T11:57:07.560Z,1007.24
2018-04-01T11:58:34.658Z,1007.25
2018-04-01T12:00:01.904Z,1007.27
2018-04-01T12:01:28.819Z,1007.27
2018-04-01T12:02:55.921Z,1007.29
2018-04-01T12:04:23.241Z,1007.36
2018-04-01T12:05:50.237Z,1007.38
2018-04-01T12:07:17.432Z,1007.38
2018-04-01T12:08:44.584Z,1007.46
2018-04-01T12:10:11.648Z,1007.42
2018-04-01T12:11:38.664Z,1007.46
2018-04-01T12:13:05.760Z,1007.46
2018-04-01T12:14:32.827Z,1007.42
2018-04-01T12:16:00.116Z,1007.39
2018-04-01T12:17:27.367Z,1007.45
2018-04-01T12:18:54.583Z,1007.43
2018-04-01T12:20:21.711Z,1007.44
2018-04-01T12:21:49.009Z,1007.44
2018-04-01T12:23:16.310Z,1007.43
2018-04-01T12:24:43.432Z,1007.47
2018-04-01T12:26:10.561Z,1007.47
2018-04-01T12:27:37.753Z,1007.49
2018-04-01T12:29:04.984Z,1007.50
2018-04-01T12:30:32.032Z,1007.51
2018-04-01T12:31:59.201Z,1007.52
2018-04-01T12:33:26.229Z,1007.53
2018-04-01T12:34:53.618Z,1007.56
2018-04-01T12:36:20.762Z,1007.54
2018-04-01T12:37:48.012Z,1007.54
2018-04-01T12:39:15.212Z,1007.56
2018-04-01T12:40:42.425Z,1007.57
2018-04-01T12:42:09.598Z,1007.61
2018-04-01T12:43:36.702Z,1007.60
2018-04-01T12:45:03.752Z,1007.64
2018-04-01T12:46:30.861Z,1007.65
2018-04-01T12:47:58.046Z,1007.65
2018-04-01T12:49:25.154Z,1007.66
2018-04-01T12:50:52.230Z,1007.70
2018-04-01T12:52:19.443Z,1007.70
2018-04-01T12:53:46.478Z,1007.71
2018-04-01T12:55:13.659Z,1007.74
2018-04-01T12:56:40.801Z,1007.71
2018-04-01T12:58:07.892Z,1007.74
2018-04-01T12:59:35.190Z,1007.74
2018-04-01T13:01:02.464Z,1007.75
2018-04-01T13:02:29.478Z,1007.75
2018-04-01T13:03:56.632Z,1007.77
2018-04-01T13:05:23.902Z,1007.79
2018-04-01T13:06:50.824Z,1007.84
2018-04-01T13:08:18.121Z,1007.80
2018-04-01T13:09:45.149Z,1007.81
2018-04-01T13:11:12.189Z,1007.86
2018-04-01T13:12:39.382Z,1007.84
2018-04-01T13:14:06.253Z,1007.88
2018-04-01T13:15:33.345Z,1007.91
2018-04-01T13:17:00.292Z,1007.92
2018-04-01T13:18:27.349Z,1007.95
2018-04-01T13:19:54.512Z,1007.94
2018-04-01T13:21:21.678Z,1007.96
2018-04-01T13:22:48.837Z,1007.96
2018-04-01T13:24:16.224Z,1007.96
2018-04-01T13:25:43.257Z,1007.98
2018-04-01T13:27:10.115Z,1007.97
2018-04-01T13:28:37.321Z,1007.99
2018-04-01T13:30:04.518Z,1007.99
2018-04-01T13:31:31.544Z,1007.99
2018-04-01T13:32:58.750Z,1007.98
2018-04-01T13:34:25.886Z,1008.00
2018-04-01T13:35:52.796Z,1007.99
2018-04-01T13:37:19.988Z,1007.97
2018-04-01T13:38:47.456Z,1007.99
2018-04-01T13:40:14.341Z,1007.97
2018-04-01T13:41:41.360Z,1007.98
2018-04-01T13:43:08.543Z,1008.01
2018-04-01T13:44:35.507Z,1008.01
2018-04-01T13:46:02.832Z,1008.03
2018-04-01T13:47:30.003Z,1008.03
2018-04-01T13:48:57.428Z,1008.02
2018-04-01T13:50:24.384Z,1008.03
2018-04-01T13:51:51.766Z,1008.04
2018-04-01T13:53:18.960Z,1008.08
2018-04-01T13:54:46.080Z,1008.09
2018-04-01T13:56:13.297Z,1008.13
2018-04-01T13:57:40.451Z,1008.12
2018-04-01T13:59:07.572Z,1008.13
2018-04-01T14:00:34.843Z,1008.19
2018-04-01T14:02:01.996Z,1008.17
2018-04-01T14:03:29.111Z,1008.19
2018-04-01T14:04:56.298Z,1008.22
2018-04-01T14:06:23.400Z,1008.24
2018-04-01T14:07:50.793Z,1008.25
2018-04-01T14:09:17.889Z,1008.25
2018-04-01T14:10:45.084Z,1008.27
2018-04-01T14:12:12.342Z,1008.30
2018-04-01T14:13:39.434Z,1008.29
2018-04-01T14:15:06.797Z,1008.31
2018-04-01T14:16:34.070Z,1008.35
2018-04-01T14:18:01.209Z,1008.36
2018-04-01T14:19:28.524Z,1008.38
2018-04-01T14:20:55.628Z,1008.40
2018-04-01T14:22:22.932Z,1008.44
2018-04-01T14:23:49.867Z,1008.42
2018-04-01T14:25:16.919Z,1008.43
2018-04-01T14:26:43.948Z,1008.46
2018-04-01T14:28:11.264Z,1008.48
2018-04-01T14:29:38.269Z,1008.50
2018-04-01T14:31:05.490Z,1008.54
2018-04-01T14:32:32.749Z,1008.54
2018-04-01T14:33:59.677Z,1008.58
2018-04-01T14:35:27.005Z,1008.59
2018-04-01T14:36:54.342Z,1008.62
2018-04-01T14:38:21.591Z,1008.64
2018-04-01T14:39:48.766Z,1008.65
2018-04-01T14:41:15.747Z,1008.65
2018-04-01T14:42:42.927Z,1008.69
2018-04-01T14:44:10.149Z,1008.73
2018-04-01T14:45:37.199Z,1008.71
2018-04-01T14:47:04.463Z,1008.74
2018-04-01T14:48:31.644Z,1008.77
2018-04-01T14:49:58.623Z,1008.79
2018-04-01T14:51:25.735Z,1008.80
2018-04-01T14:52:52.874Z,1008.80
2018-04-01T14:54:20.148Z,1008.85
2018-04-01T14:55:47.263Z,1008.84
2018-04-01T14:57:14.451Z,1008.87
2018-04-01T14:58:41.557Z,1008.86
2018-04-01T15:00:08.786Z,1008.87
2018-04-01T15:01:35.971Z,1008.86
2018-04-01T15:03:03.013Z,1008.89
2018-04-01T15:04:30.196Z,1008.87
2018-04-01T15:05:57.395Z,1008.89
2018-04-01T15:07:24.734Z,1008.88
2018-04-01T15:08:51.798Z,1008.91
2018-04-01T15:10:18.875Z,1008.90
2018-04-01T15:11:46.136Z,1008.90
2018-04-01T15:13:13.033Z,1008.92
2018-04-01T15:14:40.211Z,1008.93
2018-04-01T15:16:07.389Z,1008.95
2018-04-01T15:17:34.617Z,1008.98
2018-04-01T15:19:02.005Z,1008.96
2018-04-01T15:20:29.279Z,1008.99
2018-04-01T15:21:55.679Z,1008.99
2018-04-01T15:23:22.938Z,1009.00
2018-04-01T15:24:50.278Z,1008.97
2018-04-01T15:26:17.300Z,1008.99
2018-04-01T15:27:44.532Z,1009.03
2018-04-01T15:29:11.507Z,1009.04
2018-04-01T15:30:38.532Z,1009.04
2018-04-01T15:32:05.431Z,1009.05
2018-04-01T15:33:32.599Z,1009.08
2018-04-01T15:34:59.801Z,1009.12
2018-04-01T15:36:26.733Z,1009.08
2018-04-01T15:37:54.206Z,1009.10
2018-04-01T15:39:21.280Z,1009.11
2018-04-01T15:40:48.275Z,1009.12
2018-04-01T15:42:15.305Z,1009.12
2018-04-01T15:43:42.450Z,1009.13
2018-04-01T15:45:09.613Z,1009.13
2018-04-01T15:46:36.807Z,1009.12
2018-04-01T15:48:04.053Z,1009.15
2018-04-01T15:49:31.212Z,1009.16
2018-04-01T15:50:58.274Z,1009.16
2018-04-01T15:52:25.422Z,1009.18
2018-04-01T15:53:52.591Z,1009.19
2018-04-01T15:55:19.361Z,1009.17
2018-04-01T15:56:46.488Z,1009.20
2018-04-01T15:58:13.673Z,1009.17
2018-04-01T15:59:40.770Z,1009.17
2018-04-01T16:01:07.895Z,1009.17
2018-04-01T16:02:34.917Z,1009.18
2018-04-01T16:04:02.205Z,1009.19
2018-04-01T16:05:29.340Z,1009.20
2018-04-01T16:06:56.418Z,1009.21
2018-04-01T16:08:23.673Z,1009.22
2018-04-01T16:09:50.758Z,1009.20
2018-04-01T16:11:17.961Z,1009.21
2018-04-01T16:12:45.238Z,1009.24
2018-04-01T16:14:12.425Z,1009.25
2018-04-01T16:15:39.482Z,1009.24
2018-04-01T16:17:06.696Z,1009.28
2018-04-01T16:18:33.912Z,1009.27
2018-04-01T16:20:01.206Z,1009.31
2018-04-01T16:21:28.450Z,1009.29
2018-04-01T16:22:55.586Z,1009.30
2018-04-01T16:24:22.783Z,1009.37
2018-04-01T16:25:49.873Z,1009.36
2018-04-01T16:27:17.274Z,1009.36
2018-04-01T16:28:44.512Z,1009.33
2018-04-01T16:30:11.797Z,1009.35
2018-04-01T16:31:38.826Z,1009.36
2018-04-01T16:33:05.882Z,1009.39
2018-04-01T16:34:33.120Z,1009.38
2018-04-01T16:36:00.240Z,1009.38
2018-04-01T16:37:27.350Z,1009.38
2018-04-01T16:38:54.489Z,1009.35
2018-04-01T16:40:21.819Z,1009.38
2018-04-01T16:41:48.996Z,1009.41
2018-04-01T16:43:16.196Z,1009.45
2018-04-01T16:44:43.312Z,1009.44
2018-04-01T16:46:10.484Z,1009.48
2018-04-01T16:47:37.581Z,1009.50
2018-04-01T16:49:04.843Z,1009.52
2018-04-01T16:50:32.204Z,1009.50
2018-04-01T16:51:59.281Z,1009.51
2018-04-01T16:53:26.456Z,1009.51
2018-04-01T16:54:53.595Z,1009.54
2018-04-01T16:56:20.527Z,1009.54
2018-04-01T16:57:47.690Z,1009.54
2018-04-01T16:59:14.898Z,1009.54
2018-04-01T17:00:41.966Z,1009.57
2018-04-01T17:02:09.125Z,1009.60
2018-04-01T17:03:36.191Z,1009.60
2018-04-01T17:05:03.375Z,1009.62
2018-04-01T17:06:30.818Z,1009.64
2018-04-01T17:07:57.942Z,1009.63
2018-04-01T17:09:24.981Z,1009.64
2018-04-01T17:10:52.006Z,1009.65
2018-04-01T17:12:18.990Z,1009.68
2018-04-01T17:13:46.036Z,1009.68
2018-04-01T17:15:13.392Z,1009.70
2018-04-01T17:16:40.347Z,1009.71
2018-04-01T17:18:07.397Z,1009.72
2018-04-01T17:19:34.642Z,1009.72
2018-04-01T17:21:01.905Z,1009.78
2018-04-01T17:22:28.986Z,1009.75
2018-04-01T17:23:56.275Z,1009.75
2018-04-01T17:25:23.420Z,1009.75
2018-04-01T17:26:50.458Z,1009.76
2018-04-01T17:28:17.655Z,1009.77
2018-04-01T17:29:44.874Z,1009.77
2018-04-01T17:31:11.953Z,1009.77
2018-04-01T17:32:39.000Z,1009.82